createdAt,value
2023-03-31T00:00:30.725Z,3.1
2023-03-31T00:01:34.033Z,2.9
2023-03-31T00:02:37.302Z,3.1
2023-03-31T00:03:40.593Z,3
2023-03-31T00:04:43.880Z,3
2023-03-31T00:05:47.190Z,3.2
2023-03-31T00:06:50.485Z,2.9
2023-03-31T00:07:52.789Z,3
2023-03-31T00:08:55.087Z,3.2
2023-03-31T00:09:58.388Z,3.6
2023-03-31T00:11:01.692Z,3.3
2023-03-31T00:12:04.959Z,3.4
2023-03-31T00:13:08.283Z,3.1
2023-03-31T00:14:11.544Z,3.1
2023-03-31T00:15:14.834Z,3.3
2023-03-31T00:16:18.127Z,3.3
2023-03-31T00:17:21.423Z,3.4
2023-03-31T00:18:24.727Z,3.2
2023-03-31T00:19:28.008Z,3
2023-03-31T00:20:31.338Z,3.4
2023-03-31T00:21:34.598Z,3.6
2023-03-31T00:22:36.909Z,3.7
2023-03-31T00:23:40.192Z,3.6
2023-03-31T00:24:43.483Z,3.7
2023-03-31T00:25:46.769Z,3.4
2023-03-31T00:26:50.070Z,3.4
2023-03-31T00:27:53.427Z,3.4
2023-03-31T00:28:56.658Z,3.3
2023-03-31T00:29:58.956Z,3.4
2023-03-31T00:31:01.261Z,3.6
2023-03-31T00:32:03.580Z,3.4
2023-03-31T00:33:05.890Z,3.6
2023-03-31T00:34:09.175Z,3.6
2023-03-31T00:35:12.474Z,3.2
2023-03-31T00:36:15.767Z,3.3
2023-03-31T00:37:19.069Z,3.3
2023-03-31T00:38:22.358Z,3.3
2023-03-31T00:39:25.649Z,3.4
2023-03-31T00:40:28.940Z,3.3
2023-03-31T00:41:32.237Z,3.4
2023-03-31T00:42:35.529Z,3.3
2023-03-31T00:43:38.823Z,3.2
2023-03-31T00:44:42.120Z,3.2
2023-03-31T00:45:45.395Z,3
2023-03-31T00:46:47.714Z,3.1
2023-03-31T00:47:51.030Z,3.3
2023-03-31T00:48:54.298Z,3.2
2023-03-31T00:49:57.566Z,3.3
2023-03-31T00:51:00.903Z,3.3
2023-03-31T00:52:04.170Z,3.4
2023-03-31T00:53:07.457Z,3.1
2023-03-31T00:54:09.782Z,3.2
2023-03-31T00:55:12.084Z,3.3
2023-03-31T00:56:15.376Z,3.3
2023-03-31T00:57:17.669Z,3.6
2023-03-31T00:58:20.985Z,3.5
2023-03-31T00:59:23.705Z,3.2
2023-03-31T01:00:26.985Z,3.3
2023-03-31T01:01:30.290Z,3.4
2023-03-31T01:02:33.574Z,3.4
2023-03-31T01:03:36.913Z,3.5
2023-03-31T01:04:40.151Z,3.5
2023-03-31T01:05:43.450Z,3.3
2023-03-31T01:06:46.747Z,3.4
2023-03-31T01:07:50.049Z,3.3
2023-03-31T01:08:53.340Z,3.4
2023-03-31T01:09:56.605Z,3.5
2023-03-31T01:10:59.911Z,3.5
2023-03-31T01:12:03.215Z,3.5
2023-03-31T01:13:05.513Z,3.4
2023-03-31T01:14:08.796Z,3.5
2023-03-31T01:15:12.082Z,3.2
2023-03-31T01:16:15.378Z,3.4
2023-03-31T01:17:18.733Z,3.8
2023-03-31T01:18:22.176Z,3.3
2023-03-31T01:19:24.427Z,3.4
2023-03-31T01:20:26.734Z,3.1
2023-03-31T01:21:30.028Z,3.1
2023-03-31T01:22:33.303Z,3.3
2023-03-31T01:23:36.614Z,3.1
2023-03-31T01:24:39.899Z,3.2
2023-03-31T01:25:43.178Z,3.2
2023-03-31T01:26:46.483Z,3.3
2023-03-31T01:27:49.796Z,2.9
2023-03-31T01:28:53.063Z,2.9
2023-03-31T01:29:56.369Z,2.9
2023-03-31T01:30:59.651Z,3
2023-03-31T01:32:02.928Z,2.7
2023-03-31T01:33:06.233Z,3
2023-03-31T01:34:08.543Z,2.8
2023-03-31T01:35:11.827Z,2.9
2023-03-31T01:36:15.124Z,2.9
2023-03-31T01:37:18.406Z,2.7
2023-03-31T01:38:21.705Z,3.1
2023-03-31T01:39:24.999Z,2.6
2023-03-31T01:40:28.288Z,2.6
2023-03-31T01:41:30.608Z,2.8
2023-03-31T01:42:32.894Z,3
2023-03-31T01:43:35.244Z,2.7
2023-03-31T01:44:37.550Z,2.8
2023-03-31T01:45:40.845Z,2.6
2023-03-31T01:46:44.136Z,2.8
2023-03-31T01:47:47.428Z,2.8
2023-03-31T01:48:50.724Z,2.6
2023-03-31T01:49:54.013Z,2.8
2023-03-31T01:50:57.326Z,2.5
2023-03-31T01:52:00.602Z,2.4
2023-03-31T01:53:03.907Z,2.6
2023-03-31T01:54:07.170Z,2.5
2023-03-31T01:55:10.465Z,2.5
2023-03-31T01:56:13.759Z,2.5
2023-03-31T01:57:17.042Z,2.7
2023-03-31T01:58:19.353Z,2.6
2023-03-31T01:59:22.647Z,2.6
2023-03-31T02:00:25.934Z,2.4
2023-03-31T02:01:29.212Z,2.5
2023-03-31T02:02:32.515Z,2.5
2023-03-31T02:04:39.100Z,2.4
2023-03-31T02:05:42.408Z,2.4
2023-03-31T02:06:44.725Z,2.4
2023-03-31T02:07:47.020Z,2.3
2023-03-31T02:08:50.304Z,2.2
2023-03-31T02:09:53.624Z,2.6
2023-03-31T02:10:56.909Z,2.5
2023-03-31T02:12:00.181Z,2.3
2023-03-31T02:13:03.489Z,2.4
2023-03-31T02:14:06.782Z,2.3
2023-03-31T02:15:10.067Z,2.4
2023-03-31T02:16:13.356Z,2.3
2023-03-31T02:17:16.650Z,2.5
2023-03-31T02:18:19.947Z,2.2
2023-03-31T02:19:23.225Z,2.3
2023-03-31T02:20:27.221Z,2.2
2023-03-31T02:21:29.548Z,2.4
2023-03-31T02:22:32.826Z,2.09
2023-03-31T02:23:36.129Z,2.09
2023-03-31T02:24:39.415Z,2.09
2023-03-31T02:25:42.706Z,2.3
2023-03-31T02:26:45.986Z,2.3
2023-03-31T02:27:49.287Z,2.09
2023-03-31T02:28:51.606Z,2.2
2023-03-31T02:29:53.896Z,2.4
2023-03-31T02:30:56.256Z,2.09
2023-03-31T02:31:58.518Z,2.3
2023-03-31T02:33:01.821Z,2.09
2023-03-31T02:34:05.477Z,2.3
2023-03-31T02:35:08.404Z,2.09
2023-03-31T02:36:11.703Z,2.3
2023-03-31T02:37:14.984Z,2.3
2023-03-31T02:38:18.278Z,2.2
2023-03-31T02:39:21.582Z,2.2
2023-03-31T02:40:24.876Z,2
2023-03-31T02:41:28.213Z,2.09
2023-03-31T02:42:31.460Z,2.2
2023-03-31T02:43:34.747Z,2.2
2023-03-31T02:44:38.060Z,2
2023-03-31T02:45:40.369Z,2.4
2023-03-31T02:46:43.642Z,2.3
2023-03-31T02:47:46.928Z,2.09
2023-03-31T02:48:50.228Z,2.3
2023-03-31T02:49:53.523Z,2.09
2023-03-31T02:50:56.813Z,2.2
2023-03-31T02:52:00.110Z,1.9
2023-03-31T02:53:02.420Z,2.09
2023-03-31T02:54:04.708Z,2.2
2023-03-31T02:55:08.014Z,2.09
2023-03-31T02:56:10.335Z,2.2
2023-03-31T02:57:12.625Z,2.2
2023-03-31T02:58:15.932Z,2.3
2023-03-31T02:59:19.214Z,2.2
2023-03-31T03:00:22.499Z,2.2
2023-03-31T03:01:25.896Z,2.2
2023-03-31T03:02:29.084Z,2.3
2023-03-31T03:03:32.374Z,2.2
2023-03-31T03:04:35.707Z,2.2
2023-03-31T03:05:38.952Z,2.2
2023-03-31T03:06:42.251Z,2
2023-03-31T03:07:45.552Z,2.09
2023-03-31T03:08:49.124Z,2.09
2023-03-31T03:09:52.146Z,2.2
2023-03-31T03:10:54.530Z,2.09
2023-03-31T03:11:57.722Z,2.09
2023-03-31T03:13:01.029Z,2.3
2023-03-31T03:14:04.304Z,2.09
2023-03-31T03:15:07.594Z,2.09
2023-03-31T03:16:10.923Z,2
2023-03-31T03:17:14.193Z,2.09
2023-03-31T03:18:16.513Z,2.2
2023-03-31T03:19:18.835Z,2
2023-03-31T03:20:22.221Z,2.09
2023-03-31T03:21:24.670Z,2.09
2023-03-31T03:22:26.920Z,2.09
2023-03-31T03:23:30.205Z,2.09
2023-03-31T03:24:33.493Z,2.09
2023-03-31T03:25:36.766Z,1.9
2023-03-31T03:26:40.064Z,1.9
2023-03-31T03:27:43.359Z,2.09
2023-03-31T03:28:46.665Z,2
2023-03-31T03:29:49.937Z,1.8
2023-03-31T03:30:53.239Z,1.9
2023-03-31T03:31:56.524Z,1.9
2023-03-31T03:32:59.826Z,1.9
2023-03-31T03:34:03.122Z,1.8
2023-03-31T03:35:06.491Z,1.8
2023-03-31T03:36:08.706Z,1.7
2023-03-31T03:37:12.004Z,1.9
2023-03-31T03:38:15.304Z,1.8
2023-03-31T03:39:18.581Z,2.09
2023-03-31T03:40:21.879Z,1.5
2023-03-31T03:41:25.150Z,1.7
2023-03-31T03:42:28.457Z,1.6
2023-03-31T03:43:30.813Z,1.7
2023-03-31T03:44:33.074Z,1.7
2023-03-31T03:45:35.414Z,1.6
2023-03-31T03:46:37.715Z,1.9
2023-03-31T03:47:40.999Z,1.9
2023-03-31T03:48:44.300Z,1.7
2023-03-31T03:49:47.579Z,1.8
2023-03-31T03:50:50.865Z,1.8
2023-03-31T03:51:54.204Z,2
2023-03-31T03:52:57.452Z,1.9
2023-03-31T03:54:00.781Z,1.7
2023-03-31T03:55:04.036Z,1.6
2023-03-31T03:56:07.347Z,1.9
2023-03-31T03:57:10.644Z,1.8
2023-03-31T03:58:13.926Z,1.7
2023-03-31T03:59:17.233Z,1.9
2023-03-31T04:00:19.507Z,1.8
2023-03-31T04:01:22.809Z,1.8
2023-03-31T04:02:26.087Z,1.7
2023-03-31T04:03:29.387Z,1.6
2023-03-31T04:04:32.674Z,1.7
2023-03-31T04:05:35.966Z,1.8
2023-03-31T04:06:39.264Z,1.8
2023-03-31T04:07:41.584Z,1.7
2023-03-31T04:08:43.888Z,1.6
2023-03-31T04:09:46.194Z,1.8
2023-03-31T04:10:48.506Z,1.9
2023-03-31T04:11:51.784Z,1.6
2023-03-31T04:12:55.082Z,1.6
2023-03-31T04:13:58.381Z,1.5
2023-03-31T04:15:01.661Z,1.7
2023-03-31T04:16:04.976Z,1.8
2023-03-31T04:17:08.373Z,1.7
2023-03-31T04:18:11.656Z,1.6
2023-03-31T04:19:14.947Z,1.8
2023-03-31T04:20:18.306Z,1.8
2023-03-31T04:21:21.989Z,1.8
2023-03-31T04:22:25.271Z,1.5
2023-03-31T04:23:28.554Z,1.9
2023-03-31T04:24:30.869Z,1.8
2023-03-31T04:25:34.159Z,1.7
2023-03-31T04:26:37.445Z,1.8
2023-03-31T04:27:40.795Z,1.8
2023-03-31T04:28:44.083Z,1.9
2023-03-31T04:29:47.336Z,1.6
2023-03-31T04:30:50.625Z,1.7
2023-03-31T04:31:52.925Z,1.6
2023-03-31T04:32:55.413Z,1.8
2023-03-31T04:33:58.522Z,1.7
2023-03-31T04:35:00.844Z,1.7
2023-03-31T04:36:03.168Z,1.8
2023-03-31T04:37:06.468Z,1.7
2023-03-31T04:38:09.740Z,1.7
2023-03-31T04:39:13.036Z,1.6
2023-03-31T04:40:16.355Z,1.6
2023-03-31T04:41:19.648Z,1.7
2023-03-31T04:42:22.908Z,1.6
2023-03-31T04:43:26.190Z,1.6
2023-03-31T04:44:29.497Z,1.7
2023-03-31T04:45:32.777Z,1.9
2023-03-31T04:46:36.062Z,1.6
2023-03-31T04:47:39.366Z,1.7
2023-03-31T04:48:42.657Z,1.7
2023-03-31T04:49:44.967Z,1.5
2023-03-31T04:50:48.250Z,1.6
2023-03-31T04:51:51.544Z,1.7
2023-03-31T04:52:54.833Z,1.7
2023-03-31T04:53:58.143Z,1.7
2023-03-31T04:55:01.444Z,1.8
2023-03-31T04:56:04.721Z,1.6
2023-03-31T04:57:07.027Z,1.7
2023-03-31T04:58:09.308Z,1.6
2023-03-31T04:59:11.689Z,1.6
2023-03-31T05:00:13.941Z,1.6
2023-03-31T05:01:17.245Z,1.5
2023-03-31T05:02:20.539Z,1.6
2023-03-31T05:03:23.844Z,1.6
2023-03-31T05:04:27.123Z,1.6
2023-03-31T05:05:30.420Z,1.6
2023-03-31T05:06:33.712Z,1.8
2023-03-31T05:07:36.996Z,1.6
2023-03-31T05:08:40.302Z,1.8
2023-03-31T05:09:43.581Z,1.5
2023-03-31T05:10:46.887Z,1.7
2023-03-31T05:11:50.164Z,1.5
2023-03-31T05:12:53.458Z,1.6
2023-03-31T05:13:55.780Z,1.6
2023-03-31T05:14:58.085Z,1.6
2023-03-31T05:16:01.387Z,1.5
2023-03-31T05:17:04.669Z,1.8
2023-03-31T05:18:07.982Z,1.5
2023-03-31T05:19:11.253Z,1.5
2023-03-31T05:20:14.547Z,1.7
2023-03-31T05:21:16.854Z,1.7
2023-03-31T05:22:19.167Z,1.5
2023-03-31T05:23:21.484Z,1.6
2023-03-31T05:24:23.788Z,1.5
2023-03-31T05:25:27.074Z,1.6
2023-03-31T05:26:30.379Z,1.5
2023-03-31T05:27:33.736Z,1.5
2023-03-31T05:28:36.978Z,1.5
2023-03-31T05:29:40.266Z,1.5
2023-03-31T05:30:43.547Z,1.7
2023-03-31T05:31:46.897Z,1.4
2023-03-31T05:32:50.124Z,1.6
2023-03-31T05:33:53.424Z,1.4
2023-03-31T05:34:56.709Z,1.6
2023-03-31T05:36:00.041Z,1.5
2023-03-31T05:37:03.293Z,1.6
2023-03-31T05:38:05.594Z,1.5
2023-03-31T05:39:08.937Z,1.7
2023-03-31T05:40:12.214Z,1.5
2023-03-31T05:41:15.479Z,1.3
2023-03-31T05:42:18.752Z,1.7
2023-03-31T05:43:22.505Z,1.5
2023-03-31T05:44:25.820Z,1.7
2023-03-31T05:45:28.108Z,1.5
2023-03-31T05:46:30.415Z,1.5
2023-03-31T05:47:33.726Z,1.5
2023-03-31T05:48:36.023Z,1.4
2023-03-31T05:49:38.324Z,1.5
2023-03-31T05:50:41.601Z,1.7
2023-03-31T05:51:44.910Z,1.3
2023-03-31T05:52:48.201Z,1.5
2023-03-31T05:53:51.485Z,1.4
2023-03-31T05:54:54.773Z,1.4
2023-03-31T05:55:58.077Z,1.3
2023-03-31T05:57:01.366Z,1.3
2023-03-31T05:58:04.836Z,1.3
2023-03-31T05:59:07.945Z,1.4
2023-03-31T06:00:11.306Z,1.4
2023-03-31T06:01:14.545Z,1.5
2023-03-31T06:02:17.878Z,1.5
2023-03-31T06:03:20.167Z,1.5
2023-03-31T06:04:23.539Z,1.4
2023-03-31T06:05:26.766Z,1.4
2023-03-31T06:06:30.022Z,1.3
2023-03-31T06:07:33.291Z,1.5
2023-03-31T06:08:36.638Z,1.3
2023-03-31T06:09:39.878Z,1.4
2023-03-31T06:10:42.200Z,1.5
2023-03-31T06:11:44.662Z,1.3
2023-03-31T06:12:46.841Z,1.4
2023-03-31T06:13:49.129Z,1.3
2023-03-31T06:14:52.444Z,1.4
2023-03-31T06:15:55.714Z,1.3
2023-03-31T06:16:59.021Z,1.4
2023-03-31T06:18:02.294Z,1.4
2023-03-31T06:19:05.620Z,1.3
2023-03-31T06:20:08.887Z,1.2
2023-03-31T06:21:12.205Z,1.3
2023-03-31T06:22:15.635Z,1.3
2023-03-31T06:23:18.899Z,1.3
2023-03-31T06:24:22.965Z,1.3
2023-03-31T06:25:26.236Z,1.6
2023-03-31T06:26:29.489Z,1.8
2023-03-31T06:27:31.859Z,1.8
2023-03-31T06:28:35.089Z,1.9
2023-03-31T06:29:38.390Z,1.7
2023-03-31T06:30:41.751Z,1.7
2023-03-31T06:31:45.023Z,1.7
2023-03-31T06:32:48.282Z,1.5
2023-03-31T06:33:51.556Z,1.4
2023-03-31T06:34:53.863Z,1.5
2023-03-31T06:35:56.177Z,1.5
2023-03-31T06:36:59.461Z,1.7
2023-03-31T06:38:02.746Z,1.5
2023-03-31T06:39:05.072Z,1.4
2023-03-31T06:40:07.370Z,1.4
2023-03-31T06:41:10.665Z,1.5
2023-03-31T06:42:13.960Z,1.3
2023-03-31T06:43:17.240Z,1.9
2023-03-31T06:44:20.534Z,1.5
2023-03-31T06:45:23.834Z,1.4
2023-03-31T06:46:27.149Z,1.4
2023-03-31T06:47:30.421Z,1.4
2023-03-31T06:48:33.721Z,1.5
2023-03-31T06:49:36.986Z,1.5
2023-03-31T06:50:40.302Z,1.4
2023-03-31T06:51:43.587Z,1.4
2023-03-31T06:52:46.900Z,1.3
2023-03-31T06:53:49.192Z,1.4
2023-03-31T06:54:52.468Z,1.5
2023-03-31T06:55:55.802Z,1.3
2023-03-31T06:56:59.103Z,1
2023-03-31T06:58:02.339Z,1.1
2023-03-31T06:59:05.672Z,0.9
2023-03-31T07:00:08.938Z,1.1
2023-03-31T07:01:11.279Z,1.3
2023-03-31T07:02:13.555Z,1.5
2023-03-31T07:03:16.007Z,1.4
2023-03-31T07:04:18.308Z,1.2
2023-03-31T07:05:21.476Z,1.3
2023-03-31T07:06:24.811Z,1.2
2023-03-31T07:07:28.055Z,1.3
2023-03-31T07:08:31.347Z,1.1
2023-03-31T07:09:34.665Z,1.2
2023-03-31T07:10:38.004Z,1.1
2023-03-31T07:11:41.229Z,1.3
2023-03-31T07:12:44.512Z,1.2
2023-03-31T07:13:47.846Z,1.3
2023-03-31T07:14:51.084Z,1.7
2023-03-31T07:15:54.409Z,2.09
2023-03-31T07:16:57.679Z,1.6
2023-03-31T07:17:59.991Z,1.4
2023-03-31T07:19:03.410Z,1.3
2023-03-31T07:20:06.566Z,1.2
2023-03-31T07:21:09.857Z,1.3
2023-03-31T07:22:13.151Z,1.2
2023-03-31T07:23:16.441Z,1.6
2023-03-31T07:24:19.735Z,1
2023-03-31T07:25:22.050Z,1.6
2023-03-31T07:26:24.359Z,1.2
2023-03-31T07:27:26.676Z,1.3
2023-03-31T07:28:28.989Z,1.3
2023-03-31T07:29:32.323Z,1.4
2023-03-31T07:30:35.593Z,1.2
2023-03-31T07:31:38.937Z,1
2023-03-31T07:32:42.142Z,1
2023-03-31T07:33:45.453Z,1.1
2023-03-31T07:34:48.728Z,1.1
2023-03-31T07:35:52.026Z,1.1
2023-03-31T07:36:55.327Z,1
2023-03-31T07:37:58.599Z,1.1
2023-03-31T07:39:02.042Z,1.2
2023-03-31T07:40:05.197Z,1.1
2023-03-31T07:41:08.478Z,1.1
2023-03-31T07:42:10.786Z,1.1
2023-03-31T07:43:14.094Z,1.1
2023-03-31T07:44:17.373Z,1
2023-03-31T07:45:20.672Z,1
2023-03-31T07:46:23.993Z,1
2023-03-31T07:47:27.238Z,1
2023-03-31T07:48:30.536Z,1.1
2023-03-31T07:49:32.862Z,1
2023-03-31T07:50:35.160Z,0.9
2023-03-31T07:51:37.507Z,1
2023-03-31T07:52:39.843Z,0.9
2023-03-31T07:53:43.060Z,1.1
2023-03-31T07:54:46.372Z,0.9
2023-03-31T07:55:49.658Z,0.9
2023-03-31T07:56:52.958Z,1
2023-03-31T07:57:56.247Z,1
2023-03-31T07:58:59.669Z,1
2023-03-31T08:00:02.826Z,0.9
2023-03-31T08:01:06.100Z,1.1
2023-03-31T08:02:09.401Z,0.9
2023-03-31T08:03:12.683Z,1.1
2023-03-31T08:04:15.986Z,0.9
2023-03-31T08:05:19.267Z,1
2023-03-31T08:06:21.590Z,1
2023-03-31T08:07:24.882Z,0.7
2023-03-31T08:08:28.173Z,0.9
2023-03-31T08:09:31.461Z,0.9
2023-03-31T08:10:34.787Z,1
2023-03-31T08:11:38.060Z,0.9
2023-03-31T08:12:41.362Z,0.7
2023-03-31T08:13:43.648Z,0.8
2023-03-31T08:14:45.960Z,0.9
2023-03-31T08:15:48.286Z,0.8
2023-03-31T08:16:50.565Z,0.9
2023-03-31T08:17:53.919Z,0.9
2023-03-31T08:18:57.162Z,0.9
2023-03-31T08:20:00.466Z,0.8
2023-03-31T08:21:03.754Z,0.8
2023-03-31T08:22:07.059Z,0.6
2023-03-31T08:23:10.343Z,0.7
2023-03-31T08:24:13.613Z,0.9
2023-03-31T08:25:16.905Z,0.9
2023-03-31T08:26:20.210Z,0.8
2023-03-31T08:27:23.519Z,0.7
2023-03-31T08:28:26.811Z,0.7
2023-03-31T08:29:30.208Z,0.7
2023-03-31T08:30:32.417Z,0.7
2023-03-31T08:31:35.722Z,0.6
2023-03-31T08:32:39.039Z,0.8
2023-03-31T08:33:42.304Z,0.6
2023-03-31T08:34:45.570Z,0.8
2023-03-31T08:35:48.860Z,0.7
2023-03-31T08:36:52.157Z,0.8
2023-03-31T08:37:54.513Z,0.7
2023-03-31T08:38:58.004Z,0.8
2023-03-31T08:40:01.233Z,0.8
2023-03-31T08:41:04.467Z,0.7
2023-03-31T08:42:06.781Z,0.7
2023-03-31T08:43:09.136Z,0.7
2023-03-31T08:44:12.392Z,0.8
2023-03-31T08:45:15.698Z,0.8
2023-03-31T08:46:17.994Z,0.6
2023-03-31T08:47:21.287Z,0.6
2023-03-31T08:48:24.564Z,0.6
2023-03-31T08:49:27.859Z,0.7
2023-03-31T08:50:31.163Z,0.7
2023-03-31T08:51:34.445Z,0.6
2023-03-31T08:52:37.742Z,0.8
2023-03-31T08:53:41.032Z,0.6
2023-03-31T08:54:44.332Z,0.8
2023-03-31T08:55:47.614Z,0.7
2023-03-31T08:56:50.923Z,0.7
2023-03-31T08:57:54.210Z,0.8
2023-03-31T08:58:57.495Z,0.6
2023-03-31T08:59:59.794Z,0.6
2023-03-31T09:01:03.098Z,0.7
2023-03-31T09:02:06.393Z,0.7
2023-03-31T09:03:09.709Z,0.6
2023-03-31T09:04:12.023Z,0.7
2023-03-31T09:05:14.294Z,0.6
2023-03-31T09:06:16.627Z,0.6
2023-03-31T09:07:18.924Z,0.7
2023-03-31T09:08:22.224Z,0.7
2023-03-31T09:09:25.508Z,0.7
2023-03-31T09:10:28.789Z,0.7
2023-03-31T09:11:32.128Z,0.6
2023-03-31T09:12:35.376Z,0.6
2023-03-31T09:13:38.671Z,0.7
2023-03-31T09:14:41.976Z,0.7
2023-03-31T09:15:45.263Z,0.6
2023-03-31T09:16:48.547Z,0.6
2023-03-31T09:17:51.832Z,0.6
2023-03-31T09:18:55.132Z,0.6
2023-03-31T09:19:58.430Z,0.8
2023-03-31T09:21:00.736Z,0.6
2023-03-31T09:22:04.021Z,0.7
2023-03-31T09:23:07.310Z,0.6
2023-03-31T09:24:10.613Z,0.6
2023-03-31T09:25:13.968Z,0.6
2023-03-31T09:26:17.200Z,0.7
2023-03-31T09:27:20.487Z,0.6
2023-03-31T09:28:22.803Z,0.7
2023-03-31T09:29:25.188Z,0.7
2023-03-31T09:30:27.435Z,0.7
2023-03-31T09:31:29.743Z,0.7
2023-03-31T09:32:33.042Z,0.6
2023-03-31T09:33:36.379Z,0.7
2023-03-31T09:34:39.656Z,0.6
2023-03-31T09:35:42.911Z,0.7
2023-03-31T09:36:46.192Z,0.6
2023-03-31T09:37:49.519Z,0.7
2023-03-31T09:38:52.810Z,0.7
2023-03-31T09:39:56.061Z,0.6
2023-03-31T09:40:59.358Z,0.5
2023-03-31T09:42:02.660Z,0.6
2023-03-31T09:43:05.939Z,0.5
2023-03-31T09:44:09.237Z,0.7
2023-03-31T09:45:11.572Z,0.6
2023-03-31T09:46:14.840Z,0.6
2023-03-31T09:47:18.129Z,0.6
2023-03-31T09:48:21.403Z,0.6
2023-03-31T09:49:24.692Z,0.5
2023-03-31T09:50:27.998Z,0.7
2023-03-31T09:51:31.327Z,0.6
2023-03-31T09:52:33.630Z,0.7
2023-03-31T09:53:35.916Z,0.6
2023-03-31T09:54:38.229Z,0.7
2023-03-31T09:55:40.584Z,0.5
2023-03-31T09:56:43.821Z,0.7
2023-03-31T09:57:47.119Z,0.5
2023-03-31T09:58:50.430Z,0.6
2023-03-31T09:59:53.697Z,0.8
2023-03-31T10:00:56.986Z,0.6
2023-03-31T10:02:00.294Z,0.7
2023-03-31T10:03:03.579Z,0.7
2023-03-31T10:04:06.889Z,0.7
2023-03-31T10:05:10.148Z,0.8
2023-03-31T10:06:13.455Z,0.6
2023-03-31T10:07:16.750Z,0.7
2023-03-31T10:08:20.030Z,0.7
2023-03-31T10:09:22.337Z,0.8
2023-03-31T10:10:25.642Z,0.7
2023-03-31T10:11:28.929Z,0.7
2023-03-31T10:12:32.205Z,0.7
2023-03-31T10:13:35.516Z,0.6
2023-03-31T10:14:38.809Z,0.9
2023-03-31T10:15:42.098Z,0.8
2023-03-31T10:16:44.422Z,0.7
2023-03-31T10:17:46.729Z,0.9
2023-03-31T10:18:49.122Z,0.8
2023-03-31T10:19:51.344Z,0.8
2023-03-31T10:20:54.620Z,0.7
2023-03-31T10:21:57.919Z,0.8
2023-03-31T10:23:01.799Z,0.9
2023-03-31T10:24:04.492Z,0.7
2023-03-31T10:25:07.781Z,0.7
2023-03-31T10:26:11.090Z,0.6
2023-03-31T10:27:14.390Z,0.8
2023-03-31T10:28:17.691Z,0.9
2023-03-31T10:29:20.965Z,0.8
2023-03-31T10:30:24.290Z,1
2023-03-31T10:31:27.588Z,0.8
2023-03-31T10:32:30.900Z,0.9
2023-03-31T10:33:33.178Z,0.7
2023-03-31T10:34:36.477Z,0.9
2023-03-31T10:35:39.765Z,0.9
2023-03-31T10:36:43.078Z,1
2023-03-31T10:37:46.388Z,0.9
2023-03-31T10:38:49.726Z,0.9
2023-03-31T10:39:52.941Z,0.8
2023-03-31T10:40:55.264Z,0.8
2023-03-31T10:41:57.560Z,0.8
2023-03-31T10:43:00.872Z,0.8
2023-03-31T10:44:04.153Z,0.9
2023-03-31T10:45:07.426Z,1
2023-03-31T10:46:10.730Z,0.9
2023-03-31T10:47:14.057Z,1.5
2023-03-31T10:48:17.314Z,1.7
2023-03-31T10:49:20.591Z,1.7
2023-03-31T10:50:24.410Z,1.4
2023-03-31T10:51:27.708Z,1.1
2023-03-31T10:52:31.004Z,1.1
2023-03-31T10:53:34.298Z,1.2
2023-03-31T10:54:37.593Z,1.2
2023-03-31T10:55:39.885Z,1.2
2023-03-31T10:56:43.189Z,1.2
2023-03-31T10:57:46.481Z,1.1
2023-03-31T10:58:49.788Z,1.2
2023-03-31T10:59:53.086Z,1.1
2023-03-31T11:00:56.344Z,1.2
2023-03-31T11:01:59.630Z,1
2023-03-31T11:03:02.007Z,0.9
2023-03-31T11:04:04.258Z,1.2
2023-03-31T11:05:07.560Z,1
2023-03-31T11:06:10.859Z,1
2023-03-31T11:07:14.227Z,0.9
2023-03-31T11:08:17.441Z,1.1
2023-03-31T11:09:20.722Z,1
2023-03-31T11:10:24.560Z,1
2023-03-31T11:11:27.852Z,0.9
2023-03-31T11:12:31.116Z,1
2023-03-31T11:13:34.479Z,1
2023-03-31T11:14:37.718Z,1
2023-03-31T11:15:41.017Z,1
2023-03-31T11:16:44.287Z,1
2023-03-31T11:17:46.587Z,1
2023-03-31T11:18:49.886Z,0.8
2023-03-31T11:20:56.466Z,0.9
2023-03-31T11:21:59.781Z,1
2023-03-31T11:23:03.136Z,0.8
2023-03-31T11:24:06.350Z,1.1
2023-03-31T11:25:09.630Z,1
2023-03-31T11:26:11.950Z,1
2023-03-31T11:27:14.272Z,1
2023-03-31T11:28:16.735Z,0.9
2023-03-31T11:29:18.892Z,0.9
2023-03-31T11:30:21.209Z,0.9
2023-03-31T11:31:23.496Z,0.9
2023-03-31T11:32:26.802Z,0.9
2023-03-31T11:33:30.732Z,0.7
2023-03-31T11:34:34.012Z,0.9
2023-03-31T11:35:37.279Z,0.9
2023-03-31T11:36:40.586Z,0.8
2023-03-31T11:37:43.898Z,0.8
2023-03-31T11:38:47.166Z,1
2023-03-31T11:39:50.462Z,0.9
2023-03-31T11:40:53.756Z,0.9
2023-03-31T11:41:57.052Z,0.8
2023-03-31T11:43:00.333Z,0.8
2023-03-31T11:44:03.624Z,0.7
2023-03-31T11:45:05.911Z,0.9
2023-03-31T11:46:09.232Z,0.9
2023-03-31T11:47:12.527Z,0.8
2023-03-31T11:48:15.815Z,0.9
2023-03-31T11:49:19.105Z,0.9
2023-03-31T11:50:22.395Z,0.8
2023-03-31T11:51:25.702Z,0.8
2023-03-31T11:52:28.017Z,0.9
2023-03-31T11:53:30.321Z,0.8
2023-03-31T11:54:33.596Z,0.8
2023-03-31T11:55:35.922Z,0.8
2023-03-31T11:56:38.237Z,0.8
2023-03-31T11:57:41.524Z,1
2023-03-31T11:58:44.798Z,0.7
2023-03-31T11:59:48.189Z,0.9
2023-03-31T12:00:51.381Z,0.6
2023-03-31T12:01:54.677Z,0.8
2023-03-31T12:02:57.994Z,0.6
2023-03-31T12:04:01.280Z,0.7
2023-03-31T12:05:04.565Z,0.9
2023-03-31T12:06:07.873Z,0.9
2023-03-31T12:07:11.193Z,0.8
2023-03-31T12:08:14.444Z,0.8
2023-03-31T12:09:17.741Z,1.1
2023-03-31T12:10:20.025Z,0.7
2023-03-31T12:11:23.340Z,0.8
2023-03-31T12:12:26.618Z,0.7
2023-03-31T12:13:29.919Z,0.8
2023-03-31T12:14:33.206Z,0.7
2023-03-31T12:15:36.763Z,0.7
2023-03-31T12:16:39.805Z,0.8
2023-03-31T12:17:42.136Z,0.7
2023-03-31T12:18:44.406Z,0.8
2023-03-31T12:19:46.745Z,0.8
2023-03-31T12:20:49.057Z,0.8
2023-03-31T12:21:52.334Z,0.7
2023-03-31T12:22:55.610Z,0.9
2023-03-31T12:23:58.940Z,0.7
2023-03-31T12:25:02.208Z,0.9
2023-03-31T12:26:05.505Z,0.9
2023-03-31T12:27:08.801Z,0.7
2023-03-31T12:28:12.078Z,0.7
2023-03-31T12:29:15.375Z,0.7
2023-03-31T12:30:18.670Z,0.7
2023-03-31T12:31:21.950Z,0.7
2023-03-31T12:32:25.257Z,0.7
2023-03-31T12:33:28.549Z,0.7
2023-03-31T12:34:30.929Z,0.7
2023-03-31T12:35:34.136Z,0.7
2023-03-31T12:36:37.446Z,0.6
2023-03-31T12:37:40.729Z,0.7
2023-03-31T12:38:44.029Z,0.7
2023-03-31T12:39:47.326Z,0.6
2023-03-31T12:40:50.608Z,0.6
2023-03-31T12:41:52.930Z,0.6
2023-03-31T12:42:55.247Z,0.8
2023-03-31T12:43:57.552Z,0.6
2023-03-31T12:44:59.849Z,0.8
2023-03-31T12:46:03.145Z,0.7
2023-03-31T12:47:06.434Z,0.7
2023-03-31T12:48:09.733Z,0.6
2023-03-31T12:49:13.026Z,0.7
2023-03-31T12:50:16.293Z,0.6
2023-03-31T12:51:19.608Z,0.7
2023-03-31T12:52:22.887Z,0.7
2023-03-31T12:53:26.168Z,0.7
2023-03-31T12:54:29.499Z,0.7
2023-03-31T12:55:32.775Z,0.7
2023-03-31T12:56:36.062Z,0.7
2023-03-31T12:57:39.361Z,0.7
2023-03-31T12:58:41.668Z,0.6
2023-03-31T12:59:44.960Z,0.7
2023-03-31T13:00:48.233Z,0.6
2023-03-31T13:01:51.541Z,0.6
2023-03-31T13:02:54.833Z,0.5
2023-03-31T13:03:58.182Z,0.5
2023-03-31T13:05:01.427Z,0.8
2023-03-31T13:06:03.721Z,0.7
2023-03-31T13:07:06.039Z,0.5
2023-03-31T13:08:08.348Z,0.5
2023-03-31T13:09:10.820Z,0.8
2023-03-31T13:10:13.967Z,0.7
2023-03-31T13:11:17.420Z,0.9
2023-03-31T13:12:20.761Z,0.6
2023-03-31T13:13:23.952Z,0.5
2023-03-31T13:14:27.423Z,0.7
2023-03-31T13:15:30.401Z,0.6
2023-03-31T13:16:33.948Z,0.6
2023-03-31T13:17:36.991Z,0.5
2023-03-31T13:18:40.696Z,0.7
2023-03-31T13:19:43.869Z,0.6
2023-03-31T13:20:47.030Z,0.4
2023-03-31T13:21:50.347Z,0.6
2023-03-31T13:22:52.599Z,0.6
2023-03-31T13:23:55.926Z,0.5
2023-03-31T13:24:59.102Z,0.5
2023-03-31T13:26:02.621Z,0.6
2023-03-31T13:27:05.802Z,0.5
2023-03-31T13:28:09.088Z,0.5
2023-03-31T13:29:12.216Z,0.5
2023-03-31T13:30:14.688Z,0.5
2023-03-31T13:31:16.916Z,0.5
2023-03-31T13:32:19.262Z,0.4
2023-03-31T13:33:21.572Z,0.4
2023-03-31T13:34:25.644Z,0.4
2023-03-31T13:35:28.881Z,0.4
2023-03-31T13:36:32.164Z,0.5
2023-03-31T13:37:35.323Z,0.6
2023-03-31T13:38:38.645Z,0.5
2023-03-31T13:39:42.089Z,0.5
2023-03-31T13:40:45.360Z,0.6
2023-03-31T13:41:48.670Z,0.5
2023-03-31T13:42:51.854Z,0.6
2023-03-31T13:43:55.231Z,0.4
2023-03-31T13:44:58.358Z,0.4
2023-03-31T13:46:02.115Z,0.4
2023-03-31T13:47:04.128Z,0.6
2023-03-31T13:48:07.366Z,0.5
2023-03-31T13:49:10.660Z,0.4
2023-03-31T13:50:13.980Z,0.4
2023-03-31T13:51:17.287Z,0.5
2023-03-31T13:52:20.602Z,0.5
2023-03-31T13:53:23.882Z,0.4
2023-03-31T13:54:26.185Z,0.6
2023-03-31T13:55:28.726Z,0.3
2023-03-31T13:56:32.021Z,0.5
2023-03-31T13:57:35.203Z,0.4
2023-03-31T13:58:37.636Z,0.4
2023-03-31T13:59:39.918Z,0.4
2023-03-31T14:00:43.151Z,0.4
2023-03-31T14:01:46.617Z,0.5
2023-03-31T14:02:49.779Z,0.4
2023-03-31T14:03:53.126Z,0.3
2023-03-31T14:04:56.383Z,0.4
2023-03-31T14:05:59.537Z,0.3
2023-03-31T14:07:02.974Z,0.4
2023-03-31T14:08:06.233Z,0.4
2023-03-31T14:09:09.579Z,0.5
2023-03-31T14:10:12.851Z,0.3
2023-03-31T14:11:16.052Z,0.4
2023-03-31T14:12:19.412Z,0.4
2023-03-31T14:13:21.743Z,0.4
2023-03-31T14:14:25.020Z,0.5
2023-03-31T14:15:28.703Z,0.4
2023-03-31T14:16:32.131Z,0.3
2023-03-31T14:17:35.511Z,0.4
2023-03-31T14:18:38.720Z,0.4
2023-03-31T14:19:42.021Z,0.4
2023-03-31T14:20:44.377Z,0.4
2023-03-31T14:21:46.628Z,0.3
2023-03-31T14:22:48.959Z,0.4
2023-03-31T14:23:51.299Z,0.4
2023-03-31T14:24:54.581Z,0.4
2023-03-31T14:25:57.812Z,0.4
2023-03-31T14:27:01.174Z,0.5
2023-03-31T14:28:04.334Z,0.4
2023-03-31T14:29:07.714Z,0.5
2023-03-31T14:30:10.957Z,0.3
2023-03-31T14:31:14.294Z,0.4
2023-03-31T14:32:17.529Z,0.4
2023-03-31T14:33:20.817Z,0.5